Terminal Aerodrome Forecast
Issued by NWS

Home | Current Version | Previous Version | Text Only | Print | Product List | Glossary Off
Versions: 1 2 3 4 5 6 7 8 9 10 11 12 13 14 15 16 17 18 19 20

000
FTUS43 KGRB 291733
TAFRHI
TAF
KRHI 291733Z 2918/3018 04008G14KT P6SM SCT200
     FM292100 05008KT P6SM SCT200
     FM292200 06007KT P6SM BKN200
     FM300300 07006KT P6SM BKN120
     FM301300 07009G16KT P6SM OVC030
      TEMPO 3013/3015 5SM -RA
     FM301500 07010G18KT 5SM -RA OVC025=

USA.gov is the U.S. government's official web portal to all federal, state and local government web resources and services.